sensor_id;sensor_type;location;lat;lon;timestamp;P1;durP1;ratioP1;P2;durP2;ratioP2
74541;SDS011;63015;45.378;20.360;2023-07-22T00:00:17;6.88;;;2.72;;
74541;SDS011;63015;45.378;20.360;2023-07-22T00:02:20;8.25;;;2.80;;
74541;SDS011;63015;45.378;20.360;2023-07-22T00:04:22;4.35;;;2.30;;
74541;SDS011;63015;45.378;20.360;2023-07-22T00:06:23;7.85;;;2.75;;
74541;SDS011;63015;45.378;20.360;2023-07-22T00:08:24;7.82;;;2.40;;
74541;SDS011;63015;45.378;20.360;2023-07-22T00:10:24;9.63;;;2.45;;
74541;SDS011;63015;45.378;20.360;2023-07-22T00:12:25;6.10;;;2.38;;
74541;SDS011;63015;45.378;20.360;2023-07-22T00:14:26;7.03;;;2.58;;
74541;SDS011;63015;45.378;20.360;2023-07-22T00:16:26;9.55;;;2.65;;
74541;SDS011;63015;45.378;20.360;2023-07-22T00:18:29;8.07;;;2.95;;
74541;SDS011;63015;45.378;20.360;2023-07-22T00:20:31;9.80;;;2.88;;
74541;SDS011;63015;45.378;20.360;2023-07-22T00:22:31;6.40;;;2.42;;
74541;SDS011;63015;45.378;20.360;2023-07-22T00:24:32;6.90;;;2.28;;
74541;SDS011;63015;45.378;20.360;2023-07-22T00:26:33;6.35;;;2.80;;
74541;SDS011;63015;45.378;20.360;2023-07-22T00:28:34;6.95;;;2.72;;
74541;SDS011;63015;45.378;20.360;2023-07-22T00:30:34;10.30;;;2.58;;
74541;SDS011;63015;45.378;20.360;2023-07-22T00:32:35;7.30;;;2.47;;
74541;SDS011;63015;45.378;20.360;2023-07-22T00:34:37;8.82;;;2.83;;
74541;SDS011;63015;45.378;20.360;2023-07-22T00:36:38;8.98;;;2.95;;
74541;SDS011;63015;45.378;20.360;2023-07-22T00:38:38;7.40;;;2.75;;
74541;SDS011;63015;45.378;20.360;2023-07-22T00:40:40;7.65;;;3.30;;
74541;SDS011;63015;45.378;20.360;2023-07-22T00:42:40;6.55;;;2.60;;
74541;SDS011;63015;45.378;20.360;2023-07-22T00:44:41;5.25;;;2.58;;
74541;SDS011;63015;45.378;20.360;2023-07-22T00:46:42;7.47;;;2.83;;
74541;SDS011;63015;45.378;20.360;2023-07-22T00:48:42;7.97;;;2.75;;
74541;SDS011;63015;45.378;20.360;2023-07-22T00:50:43;7.85;;;2.50;;
74541;SDS011;63015;45.378;20.360;2023-07-22T00:52:44;7.22;;;3.00;;
74541;SDS011;63015;45.378;20.360;2023-07-22T00:54:44;10.02;;;2.92;;
74541;SDS011;63015;45.378;20.360;2023-07-22T00:56:46;7.97;;;3.42;;
74541;SDS011;63015;45.378;20.360;2023-07-22T00:58:47;9.55;;;2.83;;
74541;SDS011;63015;45.378;20.360;2023-07-22T01:00:48;6.78;;;2.30;;
74541;SDS011;63015;45.378;20.360;2023-07-22T01:02:49;8.77;;;2.38;;
74541;SDS011;63015;45.378;20.360;2023-07-22T01:04:49;6.93;;;2.33;;
74541;SDS011;63015;45.378;20.360;2023-07-22T01:06:52;6.28;;;2.20;;
74541;SDS011;63015;45.378;20.360;2023-07-22T01:08:53;7.60;;;2.83;;
74541;SDS011;63015;45.378;20.360;2023-07-22T01:10:54;6.60;;;2.22;;
74541;SDS011;63015;45.378;20.360;2023-07-22T01:12:55;8.20;;;2.17;;
74541;SDS011;63015;45.378;20.360;2023-07-22T01:14:55;7.47;;;2.25;;
74541;SDS011;63015;45.378;20.360;2023-07-22T01:16:56;8.73;;;2.80;;
74541;SDS011;63015;45.378;20.360;2023-07-22T01:18:57;5.03;;;1.75;;
74541;SDS011;63015;45.378;20.360;2023-07-22T01:20:58;7.88;;;2.10;;
74541;SDS011;63015;45.378;20.360;2023-07-22T01:22:59;6.95;;;3.05;;
74541;SDS011;63015;45.378;20.360;2023-07-22T01:25:01;6.43;;;2.13;;
74541;SDS011;63015;45.378;20.360;2023-07-22T01:27:02;5.13;;;2.22;;
74541;SDS011;63015;45.378;20.360;2023-07-22T01:29:06;8.63;;;2.67;;
74541;SDS011;63015;45.378;20.360;2023-07-22T01:31:07;7.13;;;2.25;;
74541;SDS011;63015;45.378;20.360;2023-07-22T01:33:08;6.45;;;2.20;;
74541;SDS011;63015;45.378;20.360;2023-07-22T01:35:09;7.45;;;1.95;;
74541;SDS011;63015;45.378;20.360;2023-07-22T01:37:10;6.35;;;2.22;;
74541;SDS011;63015;45.378;20.360;2023-07-22T01:39:10;7.78;;;2.50;;
74541;SDS011;63015;45.378;20.360;2023-07-22T01:41:11;6.35;;;2.00;;
74541;SDS011;63015;45.378;20.360;2023-07-22T01:43:12;5.82;;;2.13;;
74541;SDS011;63015;45.378;20.360;2023-07-22T01:45:12;5.72;;;2.00;;
74541;SDS011;63015;45.378;20.360;2023-07-22T01:47:13;6.60;;;2.35;;
74541;SDS011;63015;45.378;20.360;2023-07-22T01:49:13;7.15;;;2.40;;
74541;SDS011;63015;45.378;20.360;2023-07-22T01:51:14;7.50;;;2.20;;
74541;SDS011;63015;45.378;20.360;2023-07-22T01:53:15;7.70;;;2.30;;
74541;SDS011;63015;45.378;20.360;2023-07-22T01:55:15;9.18;;;3.10;;
74541;SDS011;63015;45.378;20.360;2023-07-22T01:57:16;8.13;;;2.95;;
74541;SDS011;63015;45.378;20.360;2023-07-22T01:59:17;7.10;;;2.58;;
74541;SDS011;63015;45.378;20.360;2023-07-22T02:01:17;7.00;;;2.33;;
74541;SDS011;63015;45.378;20.360;2023-07-22T02:03:18;7.13;;;2.13;;
74541;SDS011;63015;45.378;20.360;2023-07-22T02:05:20;7.60;;;2.30;;
74541;SDS011;63015;45.378;20.360;2023-07-22T02:07:21;10.20;;;2.45;;
74541;SDS011;63015;45.378;20.360;2023-07-22T02:09:22;5.88;;;2.53;;
74541;SDS011;63015;45.378;20.360;2023-07-22T02:11:22;8.27;;;2.13;;
74541;SDS011;63015;45.378;20.360;2023-07-22T02:13:23;7.30;;;2.47;;
74541;SDS011;63015;45.378;20.360;2023-07-22T02:15:24;7.35;;;2.05;;
74541;SDS011;63015;45.378;20.360;2023-07-22T02:17:25;7.93;;;2.30;;
74541;SDS011;63015;45.378;20.360;2023-07-22T02:19:26;7.38;;;2.33;;
74541;SDS011;63015;45.378;20.360;2023-07-22T02:21:27;6.93;;;2.00;;
74541;SDS011;63015;45.378;20.360;2023-07-22T02:23:28;7.47;;;2.10;;
74541;SDS011;63015;45.378;20.360;2023-07-22T02:25:29;6.65;;;2.58;;
74541;SDS011;63015;45.378;20.360;2023-07-22T02:27:29;7.07;;;2.10;;
74541;SDS011;63015;45.378;20.360;2023-07-22T02:29:30;8.70;;;2.50;;
74541;SDS011;63015;45.378;20.360;2023-07-22T02:31:31;8.27;;;2.22;;
74541;SDS011;63015;45.378;20.360;2023-07-22T02:33:31;7.63;;;2.95;;
74541;SDS011;63015;45.378;20.360;2023-07-22T02:35:32;6.68;;;2.65;;
74541;SDS011;63015;45.378;20.360;2023-07-22T02:37:34;6.80;;;2.55;;
74541;SDS011;63015;45.378;20.360;2023-07-22T02:39:37;7.78;;;3.42;;
74541;SDS011;63015;45.378;20.360;2023-07-22T02:41:37;7.38;;;3.25;;
74541;SDS011;63015;45.378;20.360;2023-07-22T02:43:38;6.80;;;3.67;;
74541;SDS011;63015;45.378;20.360;2023-07-22T02:45:40;8.48;;;3.67;;
74541;SDS011;63015;45.378;20.360;2023-07-22T02:47:41;6.70;;;2.60;;
74541;SDS011;63015;45.378;20.360;2023-07-22T02:49:42;7.68;;;2.70;;
74541;SDS011;63015;45.378;20.360;2023-07-22T02:51:43;8.45;;;2.95;;
74541;SDS011;63015;45.378;20.360;2023-07-22T02:53:43;10.57;;;3.00;;
74541;SDS011;63015;45.378;20.360;2023-07-22T02:55:46;8.93;;;3.00;;
74541;SDS011;63015;45.378;20.360;2023-07-22T02:57:48;7.88;;;2.95;;
74541;SDS011;63015;45.378;20.360;2023-07-22T02:59:49;10.45;;;3.58;;
74541;SDS011;63015;45.378;20.360;2023-07-22T03:01:49;8.70;;;3.90;;
74541;SDS011;63015;45.378;20.360;2023-07-22T03:03:50;9.05;;;3.65;;
74541;SDS011;63015;45.378;20.360;2023-07-22T03:05:51;8.80;;;4.40;;
74541;SDS011;63015;45.378;20.360;2023-07-22T03:07:52;8.52;;;3.85;;
74541;SDS011;63015;45.378;20.360;2023-07-22T03:09:53;10.27;;;4.13;;
74541;SDS011;63015;45.378;20.360;2023-07-22T03:11:54;11.10;;;4.20;;
74541;SDS011;63015;45.378;20.360;2023-07-22T03:13:54;11.68;;;4.35;;
74541;SDS011;63015;45.378;20.360;2023-07-22T03:15:55;10.82;;;3.92;;
74541;SDS011;63015;45.378;20.360;2023-07-22T03:17:56;10.23;;;4.93;;
74541;SDS011;63015;45.378;20.360;2023-07-22T03:19:59;9.52;;;4.05;;
74541;SDS011;63015;45.378;20.360;2023-07-22T03:21:59;9.68;;;4.43;;
74541;SDS011;63015;45.378;20.360;2023-07-22T03:24:00;8.52;;;4.20;;
74541;SDS011;63015;45.378;20.360;2023-07-22T03:26:01;9.00;;;3.80;;
74541;SDS011;63015;45.378;20.360;2023-07-22T03:28:05;9.10;;;3.92;;
74541;SDS011;63015;45.378;20.360;2023-07-22T03:30:07;9.40;;;3.90;;
74541;SDS011;63015;45.378;20.360;2023-07-22T03:32:08;8.80;;;4.35;;
74541;SDS011;63015;45.378;20.360;2023-07-22T03:34:09;8.10;;;3.92;;
74541;SDS011;63015;45.378;20.360;2023-07-22T03:36:10;9.02;;;4.30;;
74541;SDS011;63015;45.378;20.360;2023-07-22T03:38:10;11.43;;;4.00;;
74541;SDS011;63015;45.378;20.360;2023-07-22T03:40:11;9.07;;;4.20;;
74541;SDS011;63015;45.378;20.360;2023-07-22T03:42:19;9.80;;;3.67;;
74541;SDS011;63015;45.378;20.360;2023-07-22T03:44:20;10.20;;;4.50;;
74541;SDS011;63015;45.378;20.360;2023-07-22T03:46:21;9.93;;;3.85;;
74541;SDS011;63015;45.378;20.360;2023-07-22T03:48:21;11.13;;;4.18;;
74541;SDS011;63015;45.378;20.360;2023-07-22T03:50:22;10.80;;;4.43;;
74541;SDS011;63015;45.378;20.360;2023-07-22T03:52:23;9.52;;;4.20;;
74541;SDS011;63015;45.378;20.360;2023-07-22T03:54:23;10.50;;;3.50;;
74541;SDS011;63015;45.378;20.360;2023-07-22T03:56:24;6.82;;;3.50;;
74541;SDS011;63015;45.378;20.360;2023-07-22T03:58:24;8.50;;;4.60;;
74541;SDS011;63015;45.378;20.360;2023-07-22T04:00:25;9.50;;;3.38;;
74541;SDS011;63015;45.378;20.360;2023-07-22T04:02:26;9.52;;;3.90;;
74541;SDS011;63015;45.378;20.360;2023-07-22T04:04:27;9.35;;;4.30;;
74541;SDS011;63015;45.378;20.360;2023-07-22T04:06:27;9.32;;;4.15;;
74541;SDS011;63015;45.378;20.360;2023-07-22T04:08:28;10.30;;;6.07;;
74541;SDS011;63015;45.378;20.360;2023-07-22T04:10:29;10.98;;;5.28;;
74541;SDS011;63015;45.378;20.360;2023-07-22T04:12:29;11.95;;;5.38;;
74541;SDS011;63015;45.378;20.360;2023-07-22T04:14:30;11.00;;;6.20;;
74541;SDS011;63015;45.378;20.360;2023-07-22T04:16:33;11.93;;;5.78;;
74541;SDS011;63015;45.378;20.360;2023-07-22T04:18:33;10.48;;;4.45;;
74541;SDS011;63015;45.378;20.360;2023-07-22T04:20:34;10.05;;;4.15;;
74541;SDS011;63015;45.378;20.360;2023-07-22T04:22:35;7.80;;;3.92;;
74541;SDS011;63015;45.378;20.360;2023-07-22T04:24:36;11.00;;;4.13;;
74541;SDS011;63015;45.378;20.360;2023-07-22T04:26:36;11.68;;;4.88;;
74541;SDS011;63015;45.378;20.360;2023-07-22T04:28:37;8.13;;;4.05;;
74541;SDS011;63015;45.378;20.360;2023-07-22T04:30:39;12.25;;;4.57;;
74541;SDS011;63015;45.378;20.360;2023-07-22T04:32:40;8.90;;;4.28;;
74541;SDS011;63015;45.378;20.360;2023-07-22T04:34:41;6.80;;;3.63;;
74541;SDS011;63015;45.378;20.360;2023-07-22T04:36:42;7.93;;;3.20;;
74541;SDS011;63015;45.378;20.360;2023-07-22T04:38:43;10.15;;;3.83;;
74541;SDS011;63015;45.378;20.360;2023-07-22T04:40:44;8.75;;;4.10;;
74541;SDS011;63015;45.378;20.360;2023-07-22T04:42:45;8.02;;;4.15;;
74541;SDS011;63015;45.378;20.360;2023-07-22T04:44:46;8.57;;;3.22;;
74541;SDS011;63015;45.378;20.360;2023-07-22T04:46:47;8.07;;;3.55;;
74541;SDS011;63015;45.378;20.360;2023-07-22T04:48:47;7.05;;;3.47;;
74541;SDS011;63015;45.378;20.360;2023-07-22T04:50:48;11.85;;;4.43;;
74541;SDS011;63015;45.378;20.360;2023-07-22T04:52:48;9.52;;;3.95;;
74541;SDS011;63015;45.378;20.360;2023-07-22T04:54:49;8.70;;;3.65;;
74541;SDS011;63015;45.378;20.360;2023-07-22T04:56:50;9.90;;;4.35;;
74541;SDS011;63015;45.378;20.360;2023-07-22T04:58:50;10.45;;;5.70;;
74541;SDS011;63015;45.378;20.360;2023-07-22T05:00:51;10.80;;;4.53;;
74541;SDS011;63015;45.378;20.360;2023-07-22T05:02:51;8.00;;;5.15;;
74541;SDS011;63015;45.378;20.360;2023-07-22T05:04:55;9.85;;;4.53;;
74541;SDS011;63015;45.378;20.360;2023-07-22T05:06:55;10.95;;;4.25;;
74541;SDS011;63015;45.378;20.360;2023-07-22T05:08:56;10.38;;;4.68;;
74541;SDS011;63015;45.378;20.360;2023-07-22T05:10:56;11.43;;;4.47;;
74541;SDS011;63015;45.378;20.360;2023-07-22T05:12:57;11.10;;;4.55;;
74541;SDS011;63015;45.378;20.360;2023-07-22T05:14:57;12.00;;;5.50;;
74541;SDS011;63015;45.378;20.360;2023-07-22T05:16:58;9.27;;;5.10;;
74541;SDS011;63015;45.378;20.360;2023-07-22T05:18:59;10.88;;;4.75;;
74541;SDS011;63015;45.378;20.360;2023-07-22T05:20:59;12.02;;;4.75;;
74541;SDS011;63015;45.378;20.360;2023-07-22T05:23:00;7.65;;;5.20;;
74541;SDS011;63015;45.378;20.360;2023-07-22T05:25:00;12.98;;;5.43;;
74541;SDS011;63015;45.378;20.360;2023-07-22T05:27:01;10.48;;;5.13;;
74541;SDS011;63015;45.378;20.360;2023-07-22T05:29:02;9.65;;;5.03;;
74541;SDS011;63015;45.378;20.360;2023-07-22T05:31:03;10.50;;;5.13;;
74541;SDS011;63015;45.378;20.360;2023-07-22T05:33:04;11.23;;;5.00;;
74541;SDS011;63015;45.378;20.360;2023-07-22T05:35:04;8.25;;;4.88;;
74541;SDS011;63015;45.378;20.360;2023-07-22T05:37:06;8.95;;;5.10;;
74541;SDS011;63015;45.378;20.360;2023-07-22T05:39:07;9.70;;;5.20;;
74541;SDS011;63015;45.378;20.360;2023-07-22T05:41:07;9.57;;;5.40;;
74541;SDS011;63015;45.378;20.360;2023-07-22T05:43:08;10.98;;;5.22;;
74541;SDS011;63015;45.378;20.360;2023-07-22T05:45:09;10.15;;;5.68;;
74541;SDS011;63015;45.378;20.360;2023-07-22T05:47:13;10.40;;;5.45;;
74541;SDS011;63015;45.378;20.360;2023-07-22T05:49:14;10.45;;;5.25;;
74541;SDS011;63015;45.378;20.360;2023-07-22T05:51:15;9.40;;;4.90;;
74541;SDS011;63015;45.378;20.360;2023-07-22T05:53:16;15.05;;;6.57;;
74541;SDS011;63015;45.378;20.360;2023-07-22T05:55:17;10.20;;;5.93;;
74541;SDS011;63015;45.378;20.360;2023-07-22T05:57:17;13.43;;;5.43;;
74541;SDS011;63015;45.378;20.360;2023-07-22T05:59:19;11.18;;;5.07;;
74541;SDS011;63015;45.378;20.360;2023-07-22T06:01:19;11.60;;;6.55;;
74541;SDS011;63015;45.378;20.360;2023-07-22T06:03:20;9.82;;;5.25;;
74541;SDS011;63015;45.378;20.360;2023-07-22T06:05:21;9.30;;;5.13;;
74541;SDS011;63015;45.378;20.360;2023-07-22T06:07:22;11.88;;;5.50;;
74541;SDS011;63015;45.378;20.360;2023-07-22T06:09:22;8.35;;;5.30;;
74541;SDS011;63015;45.378;20.360;2023-07-22T06:11:23;10.98;;;5.55;;
74541;SDS011;63015;45.378;20.360;2023-07-22T06:13:24;8.55;;;5.07;;
74541;SDS011;63015;45.378;20.360;2023-07-22T06:15:24;9.70;;;5.55;;
74541;SDS011;63015;45.378;20.360;2023-07-22T06:17:25;10.27;;;5.32;;
74541;SDS011;63015;45.378;20.360;2023-07-22T06:19:25;8.68;;;5.22;;
74541;SDS011;63015;45.378;20.360;2023-07-22T06:21:26;9.05;;;5.13;;
74541;SDS011;63015;45.378;20.360;2023-07-22T06:23:26;11.07;;;5.25;;
74541;SDS011;63015;45.378;20.360;2023-07-22T06:25:27;11.07;;;5.45;;
74541;SDS011;63015;45.378;20.360;2023-07-22T06:27:28;9.10;;;5.43;;
74541;SDS011;63015;45.378;20.360;2023-07-22T06:29:28;9.15;;;5.30;;
74541;SDS011;63015;45.378;20.360;2023-07-22T06:31:29;7.78;;;4.68;;
74541;SDS011;63015;45.378;20.360;2023-07-22T06:33:30;9.90;;;5.68;;
74541;SDS011;63015;45.378;20.360;2023-07-22T06:35:31;8.88;;;4.10;;
74541;SDS011;63015;45.378;20.360;2023-07-22T06:37:31;9.35;;;4.50;;
74541;SDS011;63015;45.378;20.360;2023-07-22T06:39:32;8.77;;;4.78;;
74541;SDS011;63015;45.378;20.360;2023-07-22T06:41:33;8.10;;;4.70;;
74541;SDS011;63015;45.378;20.360;2023-07-22T06:43:33;9.75;;;4.78;;
74541;SDS011;63015;45.378;20.360;2023-07-22T06:45:34;8.20;;;4.05;;
74541;SDS011;63015;45.378;20.360;2023-07-22T06:47:35;8.10;;;4.53;;
74541;SDS011;63015;45.378;20.360;2023-07-22T06:49:36;8.95;;;4.90;;
74541;SDS011;63015;45.378;20.360;2023-07-22T06:51:37;7.82;;;4.60;;
74541;SDS011;63015;45.378;20.360;2023-07-22T06:53:37;6.75;;;4.43;;
74541;SDS011;63015;45.378;20.360;2023-07-22T06:55:38;8.93;;;4.53;;
74541;SDS011;63015;45.378;20.360;2023-07-22T06:57:38;8.93;;;4.65;;
74541;SDS011;63015;45.378;20.360;2023-07-22T06:59:39;7.47;;;4.28;;
74541;SDS011;63015;45.378;20.360;2023-07-22T07:01:39;8.35;;;4.20;;
74541;SDS011;63015;45.378;20.360;2023-07-22T07:03:41;8.18;;;4.32;;
74541;SDS011;63015;45.378;20.360;2023-07-22T07:05:41;8.52;;;4.22;;
74541;SDS011;63015;45.378;20.360;2023-07-22T07:07:42;12.70;;;4.95;;
74541;SDS011;63015;45.378;20.360;2023-07-22T07:09:43;8.45;;;4.68;;
74541;SDS011;63015;45.378;20.360;2023-07-22T07:11:44;7.55;;;4.30;;
74541;SDS011;63015;45.378;20.360;2023-07-22T07:13:45;8.65;;;4.35;;
74541;SDS011;63015;45.378;20.360;2023-07-22T07:15:46;6.78;;;3.88;;
74541;SDS011;63015;45.378;20.360;2023-07-22T07:17:49;7.68;;;4.03;;
74541;SDS011;63015;45.378;20.360;2023-07-22T07:19:49;8.60;;;5.13;;
74541;SDS011;63015;45.378;20.360;2023-07-22T07:21:50;9.52;;;4.82;;
74541;SDS011;63015;45.378;20.360;2023-07-22T07:23:51;9.93;;;4.63;;
74541;SDS011;63015;45.378;20.360;2023-07-22T07:25:53;8.55;;;5.53;;
74541;SDS011;63015;45.378;20.360;2023-07-22T07:27:53;6.53;;;4.15;;
74541;SDS011;63015;45.378;20.360;2023-07-22T07:29:54;6.55;;;4.18;;
74541;SDS011;63015;45.378;20.360;2023-07-22T07:31:54;7.68;;;3.72;;
74541;SDS011;63015;45.378;20.360;2023-07-22T07:33:55;8.63;;;3.97;;
74541;SDS011;63015;45.378;20.360;2023-07-22T07:35:56;7.18;;;3.80;;
74541;SDS011;63015;45.378;20.360;2023-07-22T07:37:56;9.52;;;4.32;;
74541;SDS011;63015;45.378;20.360;2023-07-22T07:39:57;7.38;;;4.25;;
74541;SDS011;63015;45.378;20.360;2023-07-22T07:41:59;7.20;;;4.43;;
74541;SDS011;63015;45.378;20.360;2023-07-22T07:44:00;7.82;;;4.32;;
74541;SDS011;63015;45.378;20.360;2023-07-22T07:48:18;7.03;;;4.57;;
74541;SDS011;63015;45.378;20.360;2023-07-22T07:50:19;7.60;;;4.32;;
74541;SDS011;63015;45.378;20.360;2023-07-22T07:52:20;7.15;;;4.60;;
74541;SDS011;63015;45.378;20.360;2023-07-22T07:54:20;7.97;;;5.25;;
74541;SDS011;63015;45.378;20.360;2023-07-22T07:56:21;6.57;;;4.50;;
74541;SDS011;63015;45.378;20.360;2023-07-22T07:58:22;7.22;;;3.97;;
74541;SDS011;63015;45.378;20.360;2023-07-22T08:00:23;8.45;;;4.30;;
74541;SDS011;63015;45.378;20.360;2023-07-22T08:02:24;8.68;;;4.15;;
74541;SDS011;63015;45.378;20.360;2023-07-22T08:04:25;8.68;;;4.43;;
74541;SDS011;63015;45.378;20.360;2023-07-22T08:06:25;9.10;;;4.22;;
74541;SDS011;63015;45.378;20.360;2023-07-22T08:08:26;8.52;;;4.45;;
74541;SDS011;63015;45.378;20.360;2023-07-22T08:10:26;8.23;;;4.40;;
74541;SDS011;63015;45.378;20.360;2023-07-22T08:12:27;10.13;;;4.70;;
74541;SDS011;63015;45.378;20.360;2023-07-22T08:14:28;7.45;;;4.43;;
74541;SDS011;63015;45.378;20.360;2023-07-22T08:16:28;6.22;;;4.13;;
74541;SDS011;63015;45.378;20.360;2023-07-22T08:18:29;8.00;;;4.30;;
74541;SDS011;63015;45.378;20.360;2023-07-22T08:20:30;8.00;;;3.85;;
74541;SDS011;63015;45.378;20.360;2023-07-22T08:22:31;7.10;;;4.35;;
74541;SDS011;63015;45.378;20.360;2023-07-22T08:24:32;6.80;;;4.40;;
74541;SDS011;63015;45.378;20.360;2023-07-22T08:26:32;6.25;;;4.28;;
74541;SDS011;63015;45.378;20.360;2023-07-22T08:28:33;5.18;;;3.80;;
74541;SDS011;63015;45.378;20.360;2023-07-22T08:30:34;9.10;;;4.35;;
74541;SDS011;63015;45.378;20.360;2023-07-22T08:32:35;8.68;;;3.90;;
74541;SDS011;63015;45.378;20.360;2023-07-22T08:34:36;5.65;;;3.80;;
74541;SDS011;63015;45.378;20.360;2023-07-22T08:36:36;5.32;;;3.90;;
74541;SDS011;63015;45.378;20.360;2023-07-22T08:38:37;6.57;;;3.80;;
74541;SDS011;63015;45.378;20.360;2023-07-22T08:40:38;6.15;;;3.80;;
74541;SDS011;63015;45.378;20.360;2023-07-22T08:42:40;7.82;;;3.90;;
74541;SDS011;63015;45.378;20.360;2023-07-22T08:44:43;5.32;;;3.38;;
74541;SDS011;63015;45.378;20.360;2023-07-22T08:46:46;6.15;;;3.38;;
74541;SDS011;63015;45.378;20.360;2023-07-22T08:48:50;6.03;;;3.60;;
74541;SDS011;63015;45.378;20.360;2023-07-22T08:53:12;6.72;;;3.88;;
74541;SDS011;63015;45.378;20.360;2023-07-22T08:55:13;6.05;;;4.10;;
74541;SDS011;63015;45.378;20.360;2023-07-22T08:57:14;6.35;;;3.80;;
74541;SDS011;63015;45.378;20.360;2023-07-22T08:59:15;7.28;;;3.92;;
74541;SDS011;63015;45.378;20.360;2023-07-22T09:01:20;6.20;;;3.75;;
74541;SDS011;63015;45.378;20.360;2023-07-22T09:03:20;8.02;;;4.88;;
74541;SDS011;63015;45.378;20.360;2023-07-22T09:05:21;7.43;;;4.38;;
74541;SDS011;63015;45.378;20.360;2023-07-22T09:07:22;8.40;;;4.85;;
74541;SDS011;63015;45.378;20.360;2023-07-22T09:09:24;5.82;;;3.55;;
74541;SDS011;63015;45.378;20.360;2023-07-22T09:11:25;6.10;;;3.80;;
74541;SDS011;63015;45.378;20.360;2023-07-22T09:13:26;7.40;;;4.00;;
74541;SDS011;63015;45.378;20.360;2023-07-22T09:15:27;7.80;;;3.90;;
74541;SDS011;63015;45.378;20.360;2023-07-22T09:17:28;6.75;;;4.30;;
74541;SDS011;63015;45.378;20.360;2023-07-22T09:19:29;7.90;;;3.78;;
74541;SDS011;63015;45.378;20.360;2023-07-22T09:21:30;10.65;;;4.30;;
74541;SDS011;63015;45.378;20.360;2023-07-22T09:23:31;5.65;;;4.15;;
74541;SDS011;63015;45.378;20.360;2023-07-22T09:25:35;8.23;;;4.10;;
74541;SDS011;63015;45.378;20.360;2023-07-22T09:27:35;5.45;;;3.80;;
74541;SDS011;63015;45.378;20.360;2023-07-22T09:29:37;8.68;;;4.07;;
74541;SDS011;63015;45.378;20.360;2023-07-22T09:31:50;8.48;;;3.40;;
74541;SDS011;63015;45.378;20.360;2023-07-22T09:33:54;7.13;;;4.47;;
74541;SDS011;63015;45.378;20.360;2023-07-22T09:35:55;7.80;;;3.30;;
74541;SDS011;63015;45.378;20.360;2023-07-22T09:37:55;7.57;;;3.60;;
74541;SDS011;63015;45.378;20.360;2023-07-22T09:39:56;5.25;;;3.50;;
74541;SDS011;63015;45.378;20.360;2023-07-22T09:41:57;5.72;;;4.63;;
74541;SDS011;63015;45.378;20.360;2023-07-22T09:44:02;6.97;;;4.78;;
74541;SDS011;63015;45.378;20.360;2023-07-22T09:46:07;7.80;;;3.78;;
74541;SDS011;63015;45.378;20.360;2023-07-22T09:48:09;6.20;;;3.53;;
74541;SDS011;63015;45.378;20.360;2023-07-22T09:50:14;6.38;;;3.60;;
74541;SDS011;63015;45.378;20.360;2023-07-22T09:52:20;5.60;;;3.83;;
74541;SDS011;63015;45.378;20.360;2023-07-22T09:54:20;5.70;;;3.50;;
74541;SDS011;63015;45.378;20.360;2023-07-22T09:56:21;6.82;;;3.55;;
74541;SDS011;63015;45.378;20.360;2023-07-22T09:58:22;6.78;;;3.63;;
74541;SDS011;63015;45.378;20.360;2023-07-22T10:00:31;7.88;;;3.65;;
74541;SDS011;63015;45.378;20.360;2023-07-22T10:02:33;7.10;;;3.63;;
74541;SDS011;63015;45.378;20.360;2023-07-22T10:04:35;5.75;;;3.75;;
74541;SDS011;63015;45.378;20.360;2023-07-22T10:06:37;6.95;;;3.40;;
74541;SDS011;63015;45.378;20.360;2023-07-22T10:08:39;7.78;;;3.38;;
74541;SDS011;63015;45.378;20.360;2023-07-22T10:10:45;8.38;;;3.00;;
74541;SDS011;63015;45.378;20.360;2023-07-22T10:12:46;8.15;;;3.50;;
74541;SDS011;63015;45.378;20.360;2023-07-22T10:14:47;6.30;;;3.65;;
74541;SDS011;63015;45.378;20.360;2023-07-22T10:16:49;5.95;;;3.13;;
74541;SDS011;63015;45.378;20.360;2023-07-22T10:18:52;6.45;;;4.45;;
74541;SDS011;63015;45.378;20.360;2023-07-22T10:20:54;6.00;;;3.47;;
74541;SDS011;63015;45.378;20.360;2023-07-22T10:22:57;6.32;;;3.80;;
74541;SDS011;63015;45.378;20.360;2023-07-22T10:24:59;7.10;;;3.30;;
74541;SDS011;63015;45.378;20.360;2023-07-22T10:27:00;5.63;;;3.42;;
74541;SDS011;63015;45.378;20.360;2023-07-22T10:29:01;7.65;;;3.47;;
74541;SDS011;63015;45.378;20.360;2023-07-22T10:31:02;6.72;;;3.45;;
74541;SDS011;63015;45.378;20.360;2023-07-22T10:33:02;6.90;;;4.50;;
74541;SDS011;63015;45.378;20.360;2023-07-22T10:35:04;6.15;;;3.78;;
74541;SDS011;63015;45.378;20.360;2023-07-22T10:37:10;7.30;;;3.92;;
74541;SDS011;63015;45.378;20.360;2023-07-22T10:39:24;7.07;;;3.30;;
74541;SDS011;63015;45.378;20.360;2023-07-22T10:41:28;5.65;;;2.92;;
74541;SDS011;63015;45.378;20.360;2023-07-22T10:43:35;6.35;;;3.42;;
74541;SDS011;63015;45.378;20.360;2023-07-22T10:45:40;7.97;;;3.25;;
74541;SDS011;63015;45.378;20.360;2023-07-22T10:47:42;6.70;;;2.85;;
74541;SDS011;63015;45.378;20.360;2023-07-22T10:49:44;5.93;;;3.08;;
74541;SDS011;63015;45.378;20.360;2023-07-22T10:51:49;7.03;;;3.55;;
74541;SDS011;63015;45.378;20.360;2023-07-22T10:53:52;5.10;;;3.00;;
74541;SDS011;63015;45.378;20.360;2023-07-22T10:58:12;5.38;;;3.25;;
74541;SDS011;63015;45.378;20.360;2023-07-22T11:00:17;5.97;;;3.20;;
74541;SDS011;63015;45.378;20.360;2023-07-22T11:02:23;6.03;;;3.40;;
74541;SDS011;63015;45.378;20.360;2023-07-22T11:04:27;7.70;;;3.15;;
74541;SDS011;63015;45.378;20.360;2023-07-22T11:06:31;5.15;;;2.90;;
74541;SDS011;63015;45.378;20.360;2023-07-22T11:08:35;5.38;;;3.80;;
74541;SDS011;63015;45.378;20.360;2023-07-22T11:10:51;9.63;;;3.63;;
74541;SDS011;63015;45.378;20.360;2023-07-22T11:12:53;4.43;;;2.95;;
74541;SDS011;63015;45.378;20.360;2023-07-22T11:15:03;6.07;;;3.35;;
74541;SDS011;63015;45.378;20.360;2023-07-22T11:17:06;5.00;;;3.20;;
74541;SDS011;63015;45.378;20.360;2023-07-22T11:19:12;5.97;;;3.33;;
74541;SDS011;63015;45.378;20.360;2023-07-22T11:21:14;5.57;;;2.90;;
74541;SDS011;63015;45.378;20.360;2023-07-22T11:23:15;6.82;;;3.58;;
74541;SDS011;63015;45.378;20.360;2023-07-22T11:25:18;4.93;;;2.85;;
74541;SDS011;63015;45.378;20.360;2023-07-22T11:27:19;5.22;;;4.20;;
74541;SDS011;63015;45.378;20.360;2023-07-22T11:29:20;8.57;;;3.58;;
74541;SDS011;63015;45.378;20.360;2023-07-22T11:31:20;5.57;;;3.20;;
74541;SDS011;63015;45.378;20.360;2023-07-22T11:33:21;5.88;;;3.30;;
74541;SDS011;63015;45.378;20.360;2023-07-22T11:35:22;6.07;;;3.13;;
74541;SDS011;63015;45.378;20.360;2023-07-22T11:37:22;6.65;;;4.10;;
74541;SDS011;63015;45.378;20.360;2023-07-22T11:39:23;5.97;;;3.35;;
74541;SDS011;63015;45.378;20.360;2023-07-22T11:41:25;6.88;;;3.33;;
74541;SDS011;63015;45.378;20.360;2023-07-22T11:43:26;6.18;;;3.30;;
74541;SDS011;63015;45.378;20.360;2023-07-22T11:45:27;7.28;;;3.10;;
74541;SDS011;63015;45.378;20.360;2023-07-22T11:47:29;7.20;;;3.80;;
74541;SDS011;63015;45.378;20.360;2023-07-22T11:49:32;5.43;;;2.88;;
74541;SDS011;63015;45.378;20.360;2023-07-22T11:51:34;6.63;;;3.13;;
74541;SDS011;63015;45.378;20.360;2023-07-22T11:53:36;5.05;;;3.30;;
74541;SDS011;63015;45.378;20.360;2023-07-22T11:55:37;5.32;;;3.22;;
74541;SDS011;63015;45.378;20.360;2023-07-22T11:57:38;4.18;;;2.90;;
74541;SDS011;63015;45.378;20.360;2023-07-22T11:59:47;5.82;;;2.95;;
74541;SDS011;63015;45.378;20.360;2023-07-22T12:01:49;5.53;;;3.10;;
74541;SDS011;63015;45.378;20.360;2023-07-22T12:03:54;5.00;;;3.05;;
74541;SDS011;63015;45.378;20.360;2023-07-22T12:05:55;6.22;;;3.25;;